sensor_id;sensor_type;location;lat;lon;timestamp;pressure;altitude;pressure_sealevel;temperature
12854;BMP180;6495;51.808;7.478;2022-09-09T00:02:22;100381.00;;;18.80
12854;BMP180;6495;51.808;7.478;2022-09-09T00:04:59;100384.00;;;18.80
12854;BMP180;6495;51.808;7.478;2022-09-09T00:07:42;100387.00;;;18.80
12854;BMP180;6495;51.808;7.478;2022-09-09T00:10:21;100394.00;;;18.80
12854;BMP180;6495;51.808;7.478;2022-09-09T00:13:02;100384.00;;;18.80
12854;BMP180;6495;51.808;7.478;2022-09-09T00:15:40;100376.00;;;18.70
12854;BMP180;6495;51.808;7.478;2022-09-09T00:18:20;100376.00;;;18.70
12854;BMP180;6495;51.808;7.478;2022-09-09T00:20:58;100376.00;;;18.70
12854;BMP180;6495;51.808;7.478;2022-09-09T00:23:34;100371.00;;;18.70
12854;BMP180;6495;51.808;7.478;2022-09-09T00:26:16;100374.00;;;18.80
12854;BMP180;6495;51.808;7.478;2022-09-09T00:28:59;100369.00;;;18.80
12854;BMP180;6495;51.808;7.478;2022-09-09T00:31:31;100369.00;;;18.80
12854;BMP180;6495;51.808;7.478;2022-09-09T00:34:08;100379.00;;;18.80
12854;BMP180;6495;51.808;7.478;2022-09-09T00:36:42;100379.00;;;18.80
12854;BMP180;6495;51.808;7.478;2022-09-09T00:39:20;100374.00;;;18.80
12854;BMP180;6495;51.808;7.478;2022-09-09T00:42:08;100367.00;;;18.80
12854;BMP180;6495;51.808;7.478;2022-09-09T00:44:51;100369.00;;;18.80
12854;BMP180;6495;51.808;7.478;2022-09-09T00:47:44;100362.00;;;18.80
12854;BMP180;6495;51.808;7.478;2022-09-09T00:50:33;100367.00;;;18.70
12854;BMP180;6495;51.808;7.478;2022-09-09T00:53:16;100360.00;;;18.70
12854;BMP180;6495;51.808;7.478;2022-09-09T00:55:53;100368.00;;;18.60
12854;BMP180;6495;51.808;7.478;2022-09-09T00:58:22;100369.00;;;18.60
12854;BMP180;6495;51.808;7.478;2022-09-09T01:00:57;100355.00;;;18.60
12854;BMP180;6495;51.808;7.478;2022-09-09T01:03:35;100365.00;;;18.60
12854;BMP180;6495;51.808;7.478;2022-09-09T01:06:18;100360.00;;;18.50
12854;BMP180;6495;51.808;7.478;2022-09-09T01:09:16;100362.00;;;18.40
12854;BMP180;6495;51.808;7.478;2022-09-09T01:11:57;100366.00;;;18.30
12854;BMP180;6495;51.808;7.478;2022-09-09T01:14:48;100366.00;;;18.30
12854;BMP180;6495;51.808;7.478;2022-09-09T01:17:24;100366.00;;;18.20
12854;BMP180;6495;51.808;7.478;2022-09-09T01:20:07;100358.00;;;18.20
12854;BMP180;6495;51.808;7.478;2022-09-09T01:22:45;100367.00;;;18.20
12854;BMP180;6495;51.808;7.478;2022-09-09T01:25:30;100363.00;;;18.20
12854;BMP180;6495;51.808;7.478;2022-09-09T01:28:05;100365.00;;;18.20
12854;BMP180;6495;51.808;7.478;2022-09-09T01:30:40;100354.00;;;18.20
12854;BMP180;6495;51.808;7.478;2022-09-09T01:33:14;100359.00;;;18.10
12854;BMP180;6495;51.808;7.478;2022-09-09T01:35:50;100358.00;;;18.10
12854;BMP180;6495;51.808;7.478;2022-09-09T01:38:22;100358.00;;;18.00
12854;BMP180;6495;51.808;7.478;2022-09-09T01:40:52;100356.00;;;18.00
12854;BMP180;6495;51.808;7.478;2022-09-09T01:43:23;100351.00;;;18.00
12854;BMP180;6495;51.808;7.478;2022-09-09T01:45:55;100364.00;;;17.90
12854;BMP180;6495;51.808;7.478;2022-09-09T01:48:24;100366.00;;;17.90
12854;BMP180;6495;51.808;7.478;2022-09-09T01:50:52;100367.00;;;17.90
12854;BMP180;6495;51.808;7.478;2022-09-09T01:53:22;100364.00;;;17.90
12854;BMP180;6495;51.808;7.478;2022-09-09T01:56:04;100372.00;;;17.80
12854;BMP180;6495;51.808;7.478;2022-09-09T01:58:54;100364.00;;;17.80
12854;BMP180;6495;51.808;7.478;2022-09-09T02:01:35;100370.00;;;17.80
12854;BMP180;6495;51.808;7.478;2022-09-09T02:04:24;100379.00;;;17.80
12854;BMP180;6495;51.808;7.478;2022-09-09T02:06:57;100368.00;;;17.80
12854;BMP180;6495;51.808;7.478;2022-09-09T02:09:26;100368.00;;;17.80
12854;BMP180;6495;51.808;7.478;2022-09-09T02:12:06;100367.00;;;17.80
12854;BMP180;6495;51.808;7.478;2022-09-09T02:14:42;100369.00;;;17.70
12854;BMP180;6495;51.808;7.478;2022-09-09T02:17:18;100368.00;;;17.60
12854;BMP180;6495;51.808;7.478;2022-09-09T02:19:51;100375.00;;;17.60
12854;BMP180;6495;51.808;7.478;2022-09-09T02:22:24;100371.00;;;17.60
12854;BMP180;6495;51.808;7.478;2022-09-09T02:24:59;100361.00;;;17.60
12854;BMP180;6495;51.808;7.478;2022-09-09T02:27:28;100363.00;;;17.60
12854;BMP180;6495;51.808;7.478;2022-09-09T02:30:00;100364.00;;;17.60
12854;BMP180;6495;51.808;7.478;2022-09-09T02:32:35;100364.00;;;17.60
12854;BMP180;6495;51.808;7.478;2022-09-09T02:35:09;100362.00;;;17.60
12854;BMP180;6495;51.808;7.478;2022-09-09T02:37:42;100360.00;;;17.60
12854;BMP180;6495;51.808;7.478;2022-09-09T02:40:13;100358.00;;;17.60
12854;BMP180;6495;51.808;7.478;2022-09-09T02:42:44;100368.00;;;17.60
12854;BMP180;6495;51.808;7.478;2022-09-09T02:45:18;100368.00;;;17.60
12854;BMP180;6495;51.808;7.478;2022-09-09T02:47:55;100365.00;;;17.50
12854;BMP180;6495;51.808;7.478;2022-09-09T02:50:33;100375.00;;;17.40
12854;BMP180;6495;51.808;7.478;2022-09-09T02:53:09;100372.00;;;17.40
12854;BMP180;6495;51.808;7.478;2022-09-09T02:55:41;100369.00;;;17.30
12854;BMP180;6495;51.808;7.478;2022-09-09T02:58:17;100365.00;;;17.30
12854;BMP180;6495;51.808;7.478;2022-09-09T03:00:49;100377.00;;;17.20
12854;BMP180;6495;51.808;7.478;2022-09-09T03:03:18;100371.00;;;17.20
12854;BMP180;6495;51.808;7.478;2022-09-09T03:05:48;100372.00;;;17.20
12854;BMP180;6495;51.808;7.478;2022-09-09T03:08:17;100370.00;;;17.20
12854;BMP180;6495;51.808;7.478;2022-09-09T03:10:45;100371.00;;;17.20
12854;BMP180;6495;51.808;7.478;2022-09-09T03:13:13;100370.00;;;17.20
12854;BMP180;6495;51.808;7.478;2022-09-09T03:15:42;100363.00;;;17.20
12854;BMP180;6495;51.808;7.478;2022-09-09T03:18:11;100366.00;;;17.10
12854;BMP180;6495;51.808;7.478;2022-09-09T03:20:39;100358.00;;;17.10
12854;BMP180;6495;51.808;7.478;2022-09-09T03:23:08;100366.00;;;17.10
12854;BMP180;6495;51.808;7.478;2022-09-09T03:25:47;100360.00;;;17.10
12854;BMP180;6495;51.808;7.478;2022-09-09T03:28:16;100357.00;;;17.10
12854;BMP180;6495;51.808;7.478;2022-09-09T03:30:44;100354.00;;;17.10
12854;BMP180;6495;51.808;7.478;2022-09-09T03:33:13;100356.00;;;17.20
12854;BMP180;6495;51.808;7.478;2022-09-09T03:35:45;100361.00;;;17.20
12854;BMP180;6495;51.808;7.478;2022-09-09T03:38:15;100357.00;;;17.20
12854;BMP180;6495;51.808;7.478;2022-09-09T03:40:50;100359.00;;;17.20
12854;BMP180;6495;51.808;7.478;2022-09-09T03:43:18;100354.00;;;17.20
12854;BMP180;6495;51.808;7.478;2022-09-09T03:45:48;100352.00;;;17.10
12854;BMP180;6495;51.808;7.478;2022-09-09T03:48:18;100352.00;;;17.10
12854;BMP180;6495;51.808;7.478;2022-09-09T03:50:48;100352.00;;;17.10
12854;BMP180;6495;51.808;7.478;2022-09-09T03:53:18;100355.00;;;17.10
12854;BMP180;6495;51.808;7.478;2022-09-09T03:55:48;100346.00;;;17.10
12854;BMP180;6495;51.808;7.478;2022-09-09T03:58:17;100348.00;;;17.20
12854;BMP180;6495;51.808;7.478;2022-09-09T04:00:55;100342.00;;;17.10
12854;BMP180;6495;51.808;7.478;2022-09-09T04:03:25;100342.00;;;17.10
12854;BMP180;6495;51.808;7.478;2022-09-09T04:05:55;100351.00;;;17.10
12854;BMP180;6495;51.808;7.478;2022-09-09T04:08:25;100347.00;;;17.20
12854;BMP180;6495;51.808;7.478;2022-09-09T04:10:54;100358.00;;;17.20
12854;BMP180;6495;51.808;7.478;2022-09-09T04:13:25;100350.00;;;17.20
12854;BMP180;6495;51.808;7.478;2022-09-09T04:15:55;100350.00;;;17.20
12854;BMP180;6495;51.808;7.478;2022-09-09T04:18:26;100351.00;;;17.10
12854;BMP180;6495;51.808;7.478;2022-09-09T04:20:55;100355.00;;;17.10
12854;BMP180;6495;51.808;7.478;2022-09-09T04:23:26;100358.00;;;17.10
12854;BMP180;6495;51.808;7.478;2022-09-09T04:25:57;100352.00;;;17.10
12854;BMP180;6495;51.808;7.478;2022-09-09T04:28:29;100358.00;;;17.10
12854;BMP180;6495;51.808;7.478;2022-09-09T04:31:04;100360.00;;;17.00
12854;BMP180;6495;51.808;7.478;2022-09-09T04:33:34;100360.00;;;17.00
12854;BMP180;6495;51.808;7.478;2022-09-09T04:36:07;100363.00;;;17.00
12854;BMP180;6495;51.808;7.478;2022-09-09T04:38:35;100357.00;;;17.00
12854;BMP180;6495;51.808;7.478;2022-09-09T04:41:04;100360.00;;;17.00
12854;BMP180;6495;51.808;7.478;2022-09-09T04:43:32;100367.00;;;17.00
12854;BMP180;6495;51.808;7.478;2022-09-09T04:46:01;100367.00;;;17.00
12854;BMP180;6495;51.808;7.478;2022-09-09T04:48:30;100364.00;;;17.00
12854;BMP180;6495;51.808;7.478;2022-09-09T04:51:02;100367.00;;;17.00
12854;BMP180;6495;51.808;7.478;2022-09-09T04:53:31;100366.00;;;17.00
12854;BMP180;6495;51.808;7.478;2022-09-09T04:56:07;100359.00;;;17.00
12854;BMP180;6495;51.808;7.478;2022-09-09T04:58:37;100362.00;;;17.00
12854;BMP180;6495;51.808;7.478;2022-09-09T05:01:07;100367.00;;;17.00
12854;BMP180;6495;51.808;7.478;2022-09-09T05:03:36;100353.00;;;17.00
12854;BMP180;6495;51.808;7.478;2022-09-09T05:06:08;100365.00;;;16.90
12854;BMP180;6495;51.808;7.478;2022-09-09T05:08:38;100354.00;;;17.00
12854;BMP180;6495;51.808;7.478;2022-09-09T05:11:15;100365.00;;;17.00
12854;BMP180;6495;51.808;7.478;2022-09-09T05:13:44;100361.00;;;16.90
12854;BMP180;6495;51.808;7.478;2022-09-09T05:16:13;100356.00;;;17.00
12854;BMP180;6495;51.808;7.478;2022-09-09T05:18:42;100367.00;;;17.00
12854;BMP180;6495;51.808;7.478;2022-09-09T05:21:13;100365.00;;;17.00
12854;BMP180;6495;51.808;7.478;2022-09-09T05:23:42;100370.00;;;17.00
12854;BMP180;6495;51.808;7.478;2022-09-09T05:26:14;100359.00;;;17.00
12854;BMP180;6495;51.808;7.478;2022-09-09T05:28:44;100357.00;;;17.00
12854;BMP180;6495;51.808;7.478;2022-09-09T05:31:14;100360.00;;;17.00
12854;BMP180;6495;51.808;7.478;2022-09-09T05:33:45;100358.00;;;17.10
12854;BMP180;6495;51.808;7.478;2022-09-09T05:36:18;100365.00;;;17.10
12854;BMP180;6495;51.808;7.478;2022-09-09T05:38:48;100358.00;;;17.10
12854;BMP180;6495;51.808;7.478;2022-09-09T05:41:17;100366.00;;;17.10
12854;BMP180;6495;51.808;7.478;2022-09-09T05:43:47;100356.00;;;17.10
12854;BMP180;6495;51.808;7.478;2022-09-09T05:46:18;100354.00;;;17.10
12854;BMP180;6495;51.808;7.478;2022-09-09T05:48:49;100345.00;;;17.10
12854;BMP180;6495;51.808;7.478;2022-09-09T05:51:21;100359.00;;;17.00
12854;BMP180;6495;51.808;7.478;2022-09-09T05:53:51;100368.00;;;17.00
12854;BMP180;6495;51.808;7.478;2022-09-09T05:56:21;100360.00;;;17.00
12854;BMP180;6495;51.808;7.478;2022-09-09T05:58:51;100362.00;;;17.00
12854;BMP180;6495;51.808;7.478;2022-09-09T06:01:23;100360.00;;;17.00
12854;BMP180;6495;51.808;7.478;2022-09-09T06:03:51;100361.00;;;17.00
12854;BMP180;6495;51.808;7.478;2022-09-09T06:06:24;100355.00;;;17.00
12854;BMP180;6495;51.808;7.478;2022-09-09T06:08:55;100359.00;;;17.00
12854;BMP180;6495;51.808;7.478;2022-09-09T06:11:27;100356.00;;;17.00
12854;BMP180;6495;51.808;7.478;2022-09-09T06:13:58;100355.00;;;17.00
12854;BMP180;6495;51.808;7.478;2022-09-09T06:16:28;100356.00;;;17.10
12854;BMP180;6495;51.808;7.478;2022-09-09T06:18:57;100362.00;;;17.10
12854;BMP180;6495;51.808;7.478;2022-09-09T06:21:29;100356.00;;;17.10
12854;BMP180;6495;51.808;7.478;2022-09-09T06:23:58;100363.00;;;17.10
12854;BMP180;6495;51.808;7.478;2022-09-09T06:26:29;100364.00;;;17.10
12854;BMP180;6495;51.808;7.478;2022-09-09T06:28:59;100362.00;;;17.20
12854;BMP180;6495;51.808;7.478;2022-09-09T06:31:30;100362.00;;;17.20
12854;BMP180;6495;51.808;7.478;2022-09-09T06:34:01;100372.00;;;17.20
12854;BMP180;6495;51.808;7.478;2022-09-09T06:36:34;100373.00;;;17.20
12854;BMP180;6495;51.808;7.478;2022-09-09T06:39:04;100377.00;;;17.30
12854;BMP180;6495;51.808;7.478;2022-09-09T06:41:39;100374.00;;;17.30
12854;BMP180;6495;51.808;7.478;2022-09-09T06:44:07;100373.00;;;17.40
12854;BMP180;6495;51.808;7.478;2022-09-09T06:46:38;100376.00;;;17.40
12854;BMP180;6495;51.808;7.478;2022-09-09T06:49:08;100371.00;;;17.40
12854;BMP180;6495;51.808;7.478;2022-09-09T06:51:38;100372.00;;;17.40
12854;BMP180;6495;51.808;7.478;2022-09-09T06:54:11;100383.00;;;17.50
12854;BMP180;6495;51.808;7.478;2022-09-09T06:56:41;100379.00;;;17.50
12854;BMP180;6495;51.808;7.478;2022-09-09T06:59:10;100385.00;;;17.50
12854;BMP180;6495;51.808;7.478;2022-09-09T07:01:41;100381.00;;;17.60
12854;BMP180;6495;51.808;7.478;2022-09-09T07:04:10;100386.00;;;17.60
12854;BMP180;6495;51.808;7.478;2022-09-09T07:06:44;100385.00;;;17.60
12854;BMP180;6495;51.808;7.478;2022-09-09T07:09:14;100387.00;;;17.70
12854;BMP180;6495;51.808;7.478;2022-09-09T07:11:45;100387.00;;;17.70
12854;BMP180;6495;51.808;7.478;2022-09-09T07:14:15;100393.00;;;17.70
12854;BMP180;6495;51.808;7.478;2022-09-09T07:16:45;100383.00;;;17.80
12854;BMP180;6495;51.808;7.478;2022-09-09T07:19:14;100390.00;;;17.80
12854;BMP180;6495;51.808;7.478;2022-09-09T07:21:43;100390.00;;;17.80
12854;BMP180;6495;51.808;7.478;2022-09-09T07:24:11;100394.00;;;17.90
12854;BMP180;6495;51.808;7.478;2022-09-09T07:26:40;100394.00;;;17.90
12854;BMP180;6495;51.808;7.478;2022-09-09T07:29:08;100383.00;;;18.00
12854;BMP180;6495;51.808;7.478;2022-09-09T07:31:39;100393.00;;;18.00
12854;BMP180;6495;51.808;7.478;2022-09-09T07:34:07;100390.00;;;18.00
12854;BMP180;6495;51.808;7.478;2022-09-09T07:36:39;100391.00;;;18.10
12854;BMP180;6495;51.808;7.478;2022-09-09T07:39:13;100397.00;;;18.10
12854;BMP180;6495;51.808;7.478;2022-09-09T07:41:43;100386.00;;;18.00
12854;BMP180;6495;51.808;7.478;2022-09-09T07:44:14;100386.00;;;18.10
12854;BMP180;6495;51.808;7.478;2022-09-09T07:46:44;100394.00;;;18.20
12854;BMP180;6495;51.808;7.478;2022-09-09T07:49:13;100396.00;;;18.20
12854;BMP180;6495;51.808;7.478;2022-09-09T07:51:44;100389.00;;;18.20
12854;BMP180;6495;51.808;7.478;2022-09-09T07:54:17;100402.00;;;18.20
12854;BMP180;6495;51.808;7.478;2022-09-09T07:56:47;100388.00;;;18.20
12854;BMP180;6495;51.808;7.478;2022-09-09T07:59:16;100394.00;;;18.30
12854;BMP180;6495;51.808;7.478;2022-09-09T08:01:48;100385.00;;;18.30
12854;BMP180;6495;51.808;7.478;2022-09-09T08:04:22;100396.00;;;18.30
12854;BMP180;6495;51.808;7.478;2022-09-09T08:06:54;100393.00;;;18.40
12854;BMP180;6495;51.808;7.478;2022-09-09T08:09:24;100396.00;;;18.50
12854;BMP180;6495;51.808;7.478;2022-09-09T08:11:54;100397.00;;;18.70
12854;BMP180;6495;51.808;7.478;2022-09-09T08:14:23;100388.00;;;18.80
12854;BMP180;6495;51.808;7.478;2022-09-09T08:16:51;100395.00;;;19.00
12854;BMP180;6495;51.808;7.478;2022-09-09T08:19:21;100395.00;;;19.10
12854;BMP180;6495;51.808;7.478;2022-09-09T08:21:49;100400.00;;;19.20
12854;BMP180;6495;51.808;7.478;2022-09-09T08:24:17;100392.00;;;19.30
12854;BMP180;6495;51.808;7.478;2022-09-09T08:26:48;100397.00;;;19.50
12854;BMP180;6495;51.808;7.478;2022-09-09T08:29:17;100395.00;;;19.60
12854;BMP180;6495;51.808;7.478;2022-09-09T08:31:48;100393.00;;;19.70
12854;BMP180;6495;51.808;7.478;2022-09-09T08:34:17;100399.00;;;19.80
12854;BMP180;6495;51.808;7.478;2022-09-09T08:36:48;100396.00;;;20.00
12854;BMP180;6495;51.808;7.478;2022-09-09T08:39:19;100401.00;;;20.00
12854;BMP180;6495;51.808;7.478;2022-09-09T08:42:24;100413.00;;;20.10
12854;BMP180;6495;51.808;7.478;2022-09-09T08:45:19;100404.00;;;20.10
12854;BMP180;6495;51.808;7.478;2022-09-09T08:48:17;100406.00;;;20.10
12854;BMP180;6495;51.808;7.478;2022-09-09T08:50:50;100411.00;;;20.20
12854;BMP180;6495;51.808;7.478;2022-09-09T08:53:22;100410.00;;;20.20
12854;BMP180;6495;51.808;7.478;2022-09-09T08:55:54;100410.00;;;20.20
12854;BMP180;6495;51.808;7.478;2022-09-09T08:58:29;100410.00;;;20.30
12854;BMP180;6495;51.808;7.478;2022-09-09T09:01:18;100408.00;;;20.30
12854;BMP180;6495;51.808;7.478;2022-09-09T09:03:59;100412.00;;;20.30
12854;BMP180;6495;51.808;7.478;2022-09-09T09:06:45;100407.00;;;20.40
12854;BMP180;6495;51.808;7.478;2022-09-09T09:09:27;100419.00;;;20.40
12854;BMP180;6495;51.808;7.478;2022-09-09T09:12:01;100411.00;;;20.40
12854;BMP180;6495;51.808;7.478;2022-09-09T09:14:35;100411.00;;;20.40
12854;BMP180;6495;51.808;7.478;2022-09-09T09:17:11;100424.00;;;20.40
12854;BMP180;6495;51.808;7.478;2022-09-09T09:19:43;100414.00;;;20.50
12854;BMP180;6495;51.808;7.478;2022-09-09T09:22:18;100424.00;;;20.50
12854;BMP180;6495;51.808;7.478;2022-09-09T09:24:53;100430.00;;;20.50
12854;BMP180;6495;51.808;7.478;2022-09-09T09:27:33;100421.00;;;20.50
12854;BMP180;6495;51.808;7.478;2022-09-09T09:30:15;100427.00;;;20.60
12854;BMP180;6495;51.808;7.478;2022-09-09T09:33:00;100421.00;;;20.70
12854;BMP180;6495;51.808;7.478;2022-09-09T09:35:30;100437.00;;;20.80
12854;BMP180;6495;51.808;7.478;2022-09-09T09:38:16;100410.00;;;20.90
12854;BMP180;6495;51.808;7.478;2022-09-09T09:41:05;100413.00;;;21.00
12854;BMP180;6495;51.808;7.478;2022-09-09T09:43:36;100422.00;;;21.20
12854;BMP180;6495;51.808;7.478;2022-09-09T09:46:19;100419.00;;;21.30
12854;BMP180;6495;51.808;7.478;2022-09-09T09:48:57;100414.00;;;21.40
12854;BMP180;6495;51.808;7.478;2022-09-09T09:51:27;100417.00;;;21.40
12854;BMP180;6495;51.808;7.478;2022-09-09T09:54:09;100416.00;;;21.40
12854;BMP180;6495;51.808;7.478;2022-09-09T09:56:44;100411.00;;;21.40
12854;BMP180;6495;51.808;7.478;2022-09-09T09:59:33;100424.00;;;21.40
12854;BMP180;6495;51.808;7.478;2022-09-09T10:02:16;100426.00;;;21.40
12854;BMP180;6495;51.808;7.478;2022-09-09T10:04:45;100422.00;;;21.40
12854;BMP180;6495;51.808;7.478;2022-09-09T10:07:21;100425.00;;;21.50
12854;BMP180;6495;51.808;7.478;2022-09-09T10:09:55;100418.00;;;21.50
12854;BMP180;6495;51.808;7.478;2022-09-09T10:12:39;100416.00;;;21.60
12854;BMP180;6495;51.808;7.478;2022-09-09T10:15:30;100414.00;;;21.50
12854;BMP180;6495;51.808;7.478;2022-09-09T10:18:16;100425.00;;;21.60
12854;BMP180;6495;51.808;7.478;2022-09-09T10:20:58;100425.00;;;21.60
12854;BMP180;6495;51.808;7.478;2022-09-09T10:24:09;100424.00;;;21.70
12854;BMP180;6495;51.808;7.478;2022-09-09T10:26:50;100422.00;;;21.70
12854;BMP180;6495;51.808;7.478;2022-09-09T10:32:37;100407.00;;;21.70
12854;BMP180;6495;51.808;7.478;2022-09-09T10:35:19;100404.00;;;21.80
12854;BMP180;6495;51.808;7.478;2022-09-09T10:38:17;100408.00;;;21.90
12854;BMP180;6495;51.808;7.478;2022-09-09T10:41:05;100407.00;;;21.90
12854;BMP180;6495;51.808;7.478;2022-09-09T10:44:15;100404.00;;;21.90
12854;BMP180;6495;51.808;7.478;2022-09-09T10:46:58;100399.00;;;21.90
12854;BMP180;6495;51.808;7.478;2022-09-09T10:50:08;100403.00;;;22.00
12854;BMP180;6495;51.808;7.478;2022-09-09T10:52:51;100404.00;;;22.10
12854;BMP180;6495;51.808;7.478;2022-09-09T10:55:27;100408.00;;;22.10
12854;BMP180;6495;51.808;7.478;2022-09-09T10:57:59;100405.00;;;22.10
12854;BMP180;6495;51.808;7.478;2022-09-09T11:00:39;100404.00;;;22.10
12854;BMP180;6495;51.808;7.478;2022-09-09T11:03:18;100403.00;;;22.10
12854;BMP180;6495;51.808;7.478;2022-09-09T11:05:51;100400.00;;;22.00
12854;BMP180;6495;51.808;7.478;2022-09-09T11:08:29;100397.00;;;22.00
12854;BMP180;6495;51.808;7.478;2022-09-09T11:11:03;100400.00;;;22.00
12854;BMP180;6495;51.808;7.478;2022-09-09T11:13:40;100388.00;;;22.10
12854;BMP180;6495;51.808;7.478;2022-09-09T11:16:23;100383.00;;;22.30
12854;BMP180;6495;51.808;7.478;2022-09-09T11:19:00;100397.00;;;22.50
12854;BMP180;6495;51.808;7.478;2022-09-09T11:21:35;100403.00;;;22.70
12854;BMP180;6495;51.808;7.478;2022-09-09T11:24:14;100405.00;;;22.60
12854;BMP180;6495;51.808;7.478;2022-09-09T11:26:49;100401.00;;;22.70
12854;BMP180;6495;51.808;7.478;2022-09-09T11:29:54;100409.00;;;22.80
12854;BMP180;6495;51.808;7.478;2022-09-09T11:33:01;100407.00;;;22.90
12854;BMP180;6495;51.808;7.478;2022-09-09T11:35:49;100405.00;;;23.10
12854;BMP180;6495;51.808;7.478;2022-09-09T11:38:26;100404.00;;;23.20
12854;BMP180;6495;51.808;7.478;2022-09-09T11:40:59;100397.00;;;23.20
12854;BMP180;6495;51.808;7.478;2022-09-09T11:43:31;100398.00;;;23.30
12854;BMP180;6495;51.808;7.478;2022-09-09T11:46:03;100405.00;;;23.30
12854;BMP180;6495;51.808;7.478;2022-09-09T11:48:36;100407.00;;;23.20
12854;BMP180;6495;51.808;7.478;2022-09-09T11:51:08;100407.00;;;23.20
12854;BMP180;6495;51.808;7.478;2022-09-09T11:53:59;100405.00;;;23.20
12854;BMP180;6495;51.808;7.478;2022-09-09T11:56:32;100398.00;;;23.20
12854;BMP180;6495;51.808;7.478;2022-09-09T11:59:05;100405.00;;;23.20
12854;BMP180;6495;51.808;7.478;2022-09-09T12:01:39;100400.00;;;23.20
12854;BMP180;6495;51.808;7.478;2022-09-09T12:04:33;100403.00;;;23.20
12854;BMP180;6495;51.808;7.478;2022-09-09T12:07:23;100396.00;;;23.20
12854;BMP180;6495;51.808;7.478;2022-09-09T12:09:58;100397.00;;;23.20
12854;BMP180;6495;51.808;7.478;2022-09-09T12:12:34;100393.00;;;23.30
12854;BMP180;6495;51.808;7.478;2022-09-09T12:15:27;100390.00;;;23.40
12854;BMP180;6495;51.808;7.478;2022-09-09T12:17:58;100392.00;;;23.50
12854;BMP180;6495;51.808;7.478;2022-09-09T12:20:36;100389.00;;;23.50
12854;BMP180;6495;51.808;7.478;2022-09-09T12:23:27;100389.00;;;23.70
12854;BMP180;6495;51.808;7.478;2022-09-09T12:26:25;100404.00;;;23.70
12854;BMP180;6495;51.808;7.478;2022-09-09T12:29:14;100401.00;;;23.60
12854;BMP180;6495;51.808;7.478;2022-09-09T12:31:54;100405.00;;;23.70
12854;BMP180;6495;51.808;7.478;2022-09-09T12:34:38;100401.00;;;23.70
12854;BMP180;6495;51.808;7.478;2022-09-09T12:37:18;100397.00;;;23.70
12854;BMP180;6495;51.808;7.478;2022-09-09T12:39:55;100393.00;;;23.80
12854;BMP180;6495;51.808;7.478;2022-09-09T12:42:24;100391.00;;;23.70
12854;BMP180;6495;51.808;7.478;2022-09-09T12:44:56;100385.00;;;23.70
12854;BMP180;6495;51.808;7.478;2022-09-09T12:47:37;100387.00;;;23.60
12854;BMP180;6495;51.808;7.478;2022-09-09T12:50:17;100385.00;;;23.60
12854;BMP180;6495;51.808;7.478;2022-09-09T12:52:49;100382.00;;;23.50
12854;BMP180;6495;51.808;7.478;2022-09-09T12:55:21;100385.00;;;23.50
12854;BMP180;6495;51.808;7.478;2022-09-09T12:57:52;100383.00;;;23.50
12854;BMP180;6495;51.808;7.478;2022-09-09T13:00:24;100394.00;;;23.40
12854;BMP180;6495;51.808;7.478;2022-09-09T13:02:56;100392.00;;;23.30
12854;BMP180;6495;51.808;7.478;2022-09-09T13:05:26;100403.00;;;23.20
12854;BMP180;6495;51.808;7.478;2022-09-09T13:08:01;100411.00;;;22.90
12854;BMP180;6495;51.808;7.478;2022-09-09T13:10:35;100408.00;;;22.80
12854;BMP180;6495;51.808;7.478;2022-09-09T13:13:24;100401.00;;;22.80
12854;BMP180;6495;51.808;7.478;2022-09-09T13:15:57;100407.00;;;22.80
12854;BMP180;6495;51.808;7.478;2022-09-09T13:18:30;100406.00;;;22.80
12854;BMP180;6495;51.808;7.478;2022-09-09T13:21:00;100393.00;;;22.90
12854;BMP180;6495;51.808;7.478;2022-09-09T13:23:31;100391.00;;;23.00
12854;BMP180;6495;51.808;7.478;2022-09-09T13:26:04;100387.00;;;23.10
12854;BMP180;6495;51.808;7.478;2022-09-09T13:28:34;100378.00;;;23.00
12854;BMP180;6495;51.808;7.478;2022-09-09T13:31:18;100373.00;;;23.00
12854;BMP180;6495;51.808;7.478;2022-09-09T13:33:47;100376.00;;;22.80
12854;BMP180;6495;51.808;7.478;2022-09-09T13:36:15;100379.00;;;22.50
12854;BMP180;6495;51.808;7.478;2022-09-09T13:38:55;100382.00;;;22.40
12854;BMP180;6495;51.808;7.478;2022-09-09T13:41:26;100381.00;;;22.30
12854;BMP180;6495;51.808;7.478;2022-09-09T13:43:57;100379.00;;;22.30
12854;BMP180;6495;51.808;7.478;2022-09-09T13:46:32;100372.00;;;22.30
12854;BMP180;6495;51.808;7.478;2022-09-09T13:49:21;100362.00;;;22.30
12854;BMP180;6495;51.808;7.478;2022-09-09T13:52:43;100379.00;;;22.10
12854;BMP180;6495;51.808;7.478;2022-09-09T13:55:11;100380.00;;;22.00
12854;BMP180;6495;51.808;7.478;2022-09-09T13:57:50;100392.00;;;22.00
12854;BMP180;6495;51.808;7.478;2022-09-09T14:00:18;100411.00;;;22.10
12854;BMP180;6495;51.808;7.478;2022-09-09T14:02:49;100425.00;;;22.00
12854;BMP180;6495;51.808;7.478;2022-09-09T14:05:18;100424.00;;;21.90
12854;BMP180;6495;51.808;7.478;2022-09-09T14:07:47;100425.00;;;21.80
12854;BMP180;6495;51.808;7.478;2022-09-09T14:10:19;100428.00;;;21.80
12854;BMP180;6495;51.808;7.478;2022-09-09T14:12:48;100423.00;;;21.60
12854;BMP180;6495;51.808;7.478;2022-09-09T14:15:17;100434.00;;;21.60
12854;BMP180;6495;51.808;7.478;2022-09-09T14:17:45;100436.00;;;21.60
12854;BMP180;6495;51.808;7.478;2022-09-09T14:20:16;100439.00;;;21.40
12854;BMP180;6495;51.808;7.478;2022-09-09T14:22:46;100441.00;;;21.30
12854;BMP180;6495;51.808;7.478;2022-09-09T14:29:44;100448.00;;;21.20
12854;BMP180;6495;51.808;7.478;2022-09-09T14:34:51;100440.00;;;21.00
12854;BMP180;6495;51.808;7.478;2022-09-09T14:37:21;100442.00;;;20.90
12854;BMP180;6495;51.808;7.478;2022-09-09T14:39:49;100446.00;;;20.90
12854;BMP180;6495;51.808;7.478;2022-09-09T14:42:18;100440.00;;;20.90
12854;BMP180;6495;51.808;7.478;2022-09-09T14:44:46;100430.00;;;20.90
12854;BMP180;6495;51.808;7.478;2022-09-09T14:47:14;100427.00;;;20.80
12854;BMP180;6495;51.808;7.478;2022-09-09T14:49:42;100413.00;;;20.70
12854;BMP180;6495;51.808;7.478;2022-09-09T14:52:13;100404.00;;;20.60
12854;BMP180;6495;51.808;7.478;2022-09-09T14:54:42;100403.00;;;20.60
12854;BMP180;6495;51.808;7.478;2022-09-09T14:57:10;100403.00;;;20.70
12854;BMP180;6495;51.808;7.478;2022-09-09T14:59:40;100407.00;;;20.70
12854;BMP180;6495;51.808;7.478;2022-09-09T15:02:09;100408.00;;;20.70
12854;BMP180;6495;51.808;7.478;2022-09-09T15:04:37;100405.00;;;20.70